createdAt,value
2023-04-27T00:02:03.909Z,100550.53
2023-04-27T00:07:05.989Z,100553.81
2023-04-27T00:12:07.649Z,100551.38
2023-04-27T00:17:09.280Z,100540.22
2023-04-27T00:22:11.386Z,100541.53
2023-04-27T00:27:13.689Z,100539.06
2023-04-27T00:32:15.558Z,100542.13
2023-04-27T00:37:18.673Z,100538.59
2023-04-27T00:42:21.571Z,100553.19
2023-04-27T00:47:26.413Z,100553.41
2023-04-27T00:52:28.137Z,100554.47
2023-04-27T00:57:29.846Z,100561.41
2023-04-27T01:02:31.633Z,100557.53
2023-04-27T01:07:33.720Z,100562.72
2023-04-27T01:12:35.424Z,100555.50
2023-04-27T01:17:39.216Z,100565.97
2023-04-27T01:22:41.015Z,100565.97
2023-04-27T01:27:46.014Z,100566.47
2023-04-27T01:32:51.258Z,100570.28
2023-04-27T01:38:04.232Z,100565.25
2023-04-27T01:43:05.922Z,100575.25
2023-04-27T01:48:09.725Z,100576.50
2023-04-27T01:53:11.392Z,100586.41
2023-04-27T01:58:13.042Z,100588.88
2023-04-27T02:03:16.180Z,100587.56
2023-04-27T02:08:18.224Z,100587.56
2023-04-27T02:13:19.898Z,100589.00
2023-04-27T02:18:21.694Z,100589.53
2023-04-27T02:23:23.368Z,100601.44
2023-04-27T02:28:25.061Z,100593.94
2023-04-27T02:33:28.501Z,100600.13
2023-04-27T02:38:30.422Z,100593.47
2023-04-27T02:43:32.183Z,100601.34
2023-04-27T02:48:33.846Z,100597.25
2023-04-27T02:53:35.447Z,100599.34
2023-04-27T02:58:37.326Z,100597.16
2023-04-27T03:03:39.220Z,100588.38
2023-04-27T03:08:41.683Z,100602.81
2023-04-27T03:13:43.285Z,100604.81
2023-04-27T03:18:55.629Z,100616.03
2023-04-27T03:23:58.720Z,100612.59
2023-04-27T03:29:00.974Z,100616.69
2023-04-27T03:34:03.713Z,100629.31
2023-04-27T03:39:05.555Z,100640.22
2023-04-27T03:44:07.222Z,100648.66
2023-04-27T03:49:10.367Z,100647.91
2023-04-27T03:54:12.068Z,100653.50
2023-04-27T03:59:14.082Z,100656.59
2023-04-27T04:04:23.734Z,100655.97
2023-04-27T04:09:26.539Z,100664.41
2023-04-27T04:14:29.283Z,100660.53
2023-04-27T04:19:33.966Z,100667.47
2023-04-27T04:24:36.189Z,100665.59
2023-04-27T04:29:38.921Z,100671.31
2023-04-27T04:34:40.806Z,100673.88
2023-04-27T04:39:42.508Z,100680.66
2023-04-27T04:44:44.800Z,100686.66
2023-04-27T04:49:46.692Z,100685.53
2023-04-27T04:54:48.634Z,100686.69
2023-04-27T04:59:50.873Z,100690.78
2023-04-27T05:04:52.675Z,100699.91
2023-04-27T05:09:55.008Z,100697.22
2023-04-27T05:14:56.858Z,100702.66
2023-04-27T05:19:58.691Z,100708.94
2023-04-27T05:25:00.474Z,100696.44
2023-04-27T05:30:02.191Z,100694.94
2023-04-27T05:35:05.152Z,100701.22
2023-04-27T05:40:09.444Z,100699.91
2023-04-27T05:45:11.408Z,100701.13
2023-04-27T05:50:13.169Z,100702.47
2023-04-27T05:55:14.873Z,100702.66
2023-04-27T06:00:16.929Z,100692.44
2023-04-27T06:05:18.724Z,100692.00
2023-04-27T06:10:20.411Z,100684.44
2023-04-27T06:15:22.019Z,100681.53
2023-04-27T06:20:23.741Z,100689.22
2023-04-27T06:25:27.470Z,100687.50
2023-04-27T06:30:29.104Z,100690.97
2023-04-27T06:35:31.584Z,100696.22
2023-04-27T06:40:33.179Z,100694.53
2023-04-27T06:45:34.839Z,100695.06
2023-04-27T06:50:36.468Z,100694.75
2023-04-27T06:55:38.172Z,100694.75
2023-04-27T07:00:39.810Z,100706.50
2023-04-27T07:05:41.524Z,100685.75
2023-04-27T07:10:43.622Z,100701.72
2023-04-27T07:15:45.264Z,100707.06
2023-04-27T07:20:46.901Z,100705.59
2023-04-27T07:25:49.517Z,100705.81
2023-04-27T07:30:51.737Z,100702.75
2023-04-27T07:35:54.596Z,100707.94
2023-04-27T07:40:58.925Z,100713.59
2023-04-27T07:46:01.040Z,100707.78
2023-04-27T07:51:02.825Z,100707.81
2023-04-27T07:56:06.101Z,100710.94
2023-04-27T08:01:07.897Z,100709.66
2023-04-27T08:06:09.809Z,100714.84
2023-04-27T08:11:13.000Z,100724.06
2023-04-27T08:16:14.654Z,100729.69
2023-04-27T08:21:16.390Z,100717.50
2023-04-27T08:26:18.158Z,100718.00
2023-04-27T08:31:19.810Z,100714.03
2023-04-27T08:36:25.141Z,100708.13
2023-04-27T08:41:26.859Z,100711.06
2023-04-27T08:46:28.741Z,100706.66
2023-04-27T08:51:32.358Z,100707.41
2023-04-27T08:56:33.997Z,100701.91
2023-04-27T09:01:35.660Z,100700.59
2023-04-27T09:06:37.254Z,100701.91
2023-04-27T09:11:39.795Z,100705.47
2023-04-27T09:16:42.464Z,100696.88
2023-04-27T09:21:48.188Z,100696.88
2023-04-27T09:26:50.148Z,100698.72
2023-04-27T09:31:51.874Z,100690.00
2023-04-27T09:36:53.575Z,100681.19
2023-04-27T09:41:56.387Z,100688.09
2023-04-27T09:46:58.949Z,100676.84
2023-04-27T09:52:00.612Z,100680.38
2023-04-27T09:57:24.048Z,100662.56
2023-04-27T10:02:26.846Z,100673.81
2023-04-27T10:07:29.569Z,100674.69
2023-04-27T10:12:36.884Z,100683.13
2023-04-27T10:17:38.632Z,100678.03
2023-04-27T10:22:50.083Z,100673.59
2023-04-27T10:27:55.261Z,100674.63
2023-04-27T10:32:58.545Z,100679.94
2023-04-27T10:38:30.347Z,100668.34
2023-04-27T10:43:34.308Z,100682.13
2023-04-27T10:48:35.902Z,100671.84
2023-04-27T10:53:37.878Z,100659.19
2023-04-27T10:58:48.803Z,100663.41
2023-04-27T11:03:58.907Z,100662.94
2023-04-27T11:09:01.747Z,100666.06
2023-04-27T11:14:04.035Z,100664.44
2023-04-27T11:19:06.873Z,100664.03
2023-04-27T11:24:10.078Z,100668.06
2023-04-27T11:29:15.586Z,100664.78
2023-04-27T11:34:19.329Z,100665.19
2023-04-27T11:39:22.465Z,100661.00
2023-04-27T11:44:27.800Z,100667.44
2023-04-27T11:49:29.409Z,100674.25
2023-04-27T11:54:31.335Z,100678.44
2023-04-27T11:59:32.920Z,100684.56
2023-04-27T12:04:34.846Z,100679.34
2023-04-27T12:09:36.648Z,100673.78
2023-04-27T12:14:38.672Z,100679.72
2023-04-27T12:19:40.277Z,100670.66
2023-04-27T12:24:41.890Z,100682.50
2023-04-27T12:29:43.530Z,100688.66
2023-04-27T12:34:45.274Z,100684.75
2023-04-27T12:39:47.149Z,100687.00
2023-04-27T12:44:48.781Z,100692.19
2023-04-27T12:49:51.186Z,100684.47
2023-04-27T12:54:57.666Z,100690.75
2023-04-27T13:00:01.545Z,100685.84
2023-04-27T13:05:07.921Z,100676.56
2023-04-27T13:10:12.107Z,100672.88
2023-04-27T13:15:13.926Z,100674.09
2023-04-27T13:20:15.580Z,100659.06
2023-04-27T13:25:17.795Z,100666.94
2023-04-27T13:30:19.591Z,100666.72
2023-04-27T13:35:21.266Z,100668.97
2023-04-27T13:40:22.981Z,100663.09
2023-04-27T13:45:24.603Z,100662.19
2023-04-27T13:50:26.271Z,100650.63
2023-04-27T13:55:27.947Z,100659.34
2023-04-27T14:00:33.421Z,100654.44
2023-04-27T14:05:35.203Z,100639.03
2023-04-27T14:10:37.862Z,100641.97
2023-04-27T14:15:39.684Z,100646.09
2023-04-27T14:20:42.317Z,100640.88
2023-04-27T14:25:44.099Z,100638.28
2023-04-27T14:30:46.171Z,100639.53
2023-04-27T14:35:47.898Z,100634.31
2023-04-27T14:40:49.517Z,100626.91
2023-04-27T14:45:54.270Z,100628.91
2023-04-27T14:50:59.034Z,100629.88
2023-04-27T14:56:00.793Z,100645.03
2023-04-27T15:01:02.858Z,100627.81
2023-04-27T15:06:05.562Z,100633.41
2023-04-27T15:11:07.262Z,100635.56
2023-04-27T15:16:09.466Z,100631.72
2023-04-27T15:21:11.236Z,100639.72
2023-04-27T15:26:12.867Z,100626.72
2023-04-27T15:31:14.559Z,100632.25
2023-04-27T15:36:17.483Z,100640.13
2023-04-27T15:41:19.174Z,100637.88
2023-04-27T15:46:20.905Z,100635.41
2023-04-27T15:51:22.701Z,100625.41
2023-04-27T15:56:25.574Z,100620.84
2023-04-27T16:01:27.634Z,100616.31
2023-04-27T16:06:31.987Z,100602.59
2023-04-27T16:11:33.781Z,100600.19
2023-04-27T16:16:35.566Z,100592.09
2023-04-27T16:21:37.322Z,100584.69
2023-04-27T16:26:39.135Z,100587.38
2023-04-27T16:31:42.673Z,100582.34
2023-04-27T16:36:44.583Z,100590.06
2023-04-27T16:41:46.390Z,100587.66
2023-04-27T16:46:50.529Z,100581.00
2023-04-27T16:51:54.345Z,100579.75
2023-04-27T16:56:56.105Z,100582.03
2023-04-27T17:02:03.754Z,100591.13
2023-04-27T17:07:11.340Z,100596.53
2023-04-27T17:12:14.780Z,100596.44
2023-04-27T17:17:16.602Z,100594.16
2023-04-27T17:22:18.374Z,100594.75
2023-04-27T17:27:20.172Z,100598.34
2023-04-27T17:32:22.564Z,100600.03
2023-04-27T17:37:24.336Z,100606.44
2023-04-27T17:42:26.038Z,100603.72
2023-04-27T17:47:28.076Z,100606.16
2023-04-27T17:52:29.744Z,100603.75
2023-04-27T17:57:31.543Z,100615.50
2023-04-27T18:02:33.377Z,100608.41
2023-04-27T18:07:38.061Z,100613.34
2023-04-27T18:12:39.750Z,100628.38
2023-04-27T18:17:42.045Z,100617.38
2023-04-27T18:22:43.813Z,100627.41
2023-04-27T18:27:45.509Z,100632.19
2023-04-27T18:32:48.426Z,100637.66
2023-04-27T18:37:50.145Z,100638.03
2023-04-27T18:42:53.112Z,100644.09
2023-04-27T18:47:54.812Z,100659.41
2023-04-27T18:52:56.802Z,100651.72
2023-04-27T18:57:58.430Z,100655.41
2023-04-27T19:03:00.182Z,100665.84
2023-04-27T19:08:02.180Z,100672.88
2023-04-27T19:13:04.132Z,100664.56
2023-04-27T19:18:11.142Z,100674.19
2023-04-27T19:23:13.647Z,100672.88
2023-04-27T19:28:19.214Z,100677.94
2023-04-27T19:33:30.623Z,100676.41
2023-04-27T19:38:32.304Z,100674.63
2023-04-27T19:43:34.119Z,100675.13
2023-04-27T19:48:36.412Z,100671.97
2023-04-27T19:53:42.776Z,100666.03
2023-04-27T19:58:44.457Z,100661.41
2023-04-27T20:03:46.261Z,100653.97
2023-04-27T20:08:48.633Z,100650.06
2023-04-27T20:13:50.554Z,100650.06
2023-04-27T20:18:52.661Z,100642.63
2023-04-27T20:23:54.421Z,100655.69
2023-04-27T20:28:56.119Z,100650.09
2023-04-27T20:33:57.866Z,100644.22
2023-04-27T20:39:08.296Z,100655.94
2023-04-27T20:44:14.743Z,100661.06
2023-04-27T20:49:24.678Z,100655.47
2023-04-27T20:54:32.716Z,100656.56
2023-04-27T20:59:34.362Z,100655.94
2023-04-27T21:04:36.333Z,100656.75
2023-04-27T21:09:39.060Z,100643.72
2023-04-27T21:14:40.827Z,100641.50
2023-04-27T21:19:42.871Z,100637.81
2023-04-27T21:24:44.478Z,100631.84
2023-04-27T21:29:46.444Z,100630.63
2023-04-27T21:34:48.273Z,100633.31
2023-04-27T21:39:49.889Z,100637.03
2023-04-27T21:44:51.563Z,100631.41
2023-04-27T21:49:53.184Z,100626.03
2023-04-27T21:54:54.815Z,100620.50
2023-04-27T21:59:56.467Z,100621.06
2023-04-27T22:04:58.676Z,100620.09
2023-04-27T22:10:00.387Z,100621.53
2023-04-27T22:15:02.101Z,100617.66
2023-04-27T22:20:05.197Z,100618.28
2023-04-27T22:25:11.256Z,100620.31
2023-04-27T22:30:13.902Z,100625.41
2023-04-27T22:35:25.828Z,100631.00
2023-04-27T22:40:29.062Z,100627.91
2023-04-27T22:45:30.704Z,100634.56
2023-04-27T22:50:32.455Z,100621.59
2023-04-27T22:55:34.060Z,100624.47
2023-04-27T23:00:36.608Z,100623.97
2023-04-27T23:05:38.281Z,100629.03
2023-04-27T23:10:39.978Z,100618.84
2023-04-27T23:15:41.780Z,100623.16
2023-04-27T23:20:43.669Z,100617.94
2023-04-27T23:25:45.357Z,100612.75
2023-04-27T23:30:56.121Z,100615.03
2023-04-27T23:35:57.946Z,100610.66
2023-04-27T23:40:59.607Z,100610.34
2023-04-27T23:46:01.305Z,100605.44
2023-04-27T23:51:04.245Z,100594.75
2023-04-27T23:56:06.312Z,100595.50
